Impacts METAR Board
IDs:

KNUQ - Moffett Fed Airfld, CA, US

Updated at: 2200 UTC 01 Feb 2023
Potential Impact None Slight Moderate High
Time 01/10Z 01/11Z 01/12Z 01/13Z 01/14Z 01/15Z 01/16Z 01/17Z 01/18Z 01/19Z 01/20Z 01/21Z 01/22Z
Temp37 37 37 36 36 36 37 43 46 50 52 54 55
Dewpt27 27 27 27 27 27 27 28 28 32 27 27 28
Altim30.19 30.19 30.18 30.18 30.19 30.20 30.21 30.22 30.22 30.22 30.21 30.19 30.18
VIS10 10 10 10 10 10 10 10 10 10 10 10 10
CIG-- -- 42 39 -- -- -- -- -- -- -- -- --
CoverCLRCLROVCBKNFEWCLRCLRCLRCLRCLRCLRCLRCLR
FltCatVFRVFRVFRVFRVFRVFRVFRVFRVFRVFRVFRVFRVFR
WX--------------------------
WDir000000000350340350350
WSpd0 0 0 0 0 0 0 0 0 5 4 7 7
WGst-- -- -- -- -- -- -- -- -- -- -- -- --
Raw hourly METARs
KNUQ 010955Z AUTO 00000KT 10SM CLR 03/M03 A3019 RMK AO2
KNUQ 011055Z AUTO 00000KT 10SM CLR 03/M03 A3019 RMK AO2
KNUQ 011155Z AUTO 00000KT 10SM OVC042 03/M03 A3018 RMK AO2
KNUQ 011255Z AUTO 00000KT 10SM BKN039 02/M03 A3018 RMK AO2
KNUQ 011355Z AUTO 00000KT 10SM FEW039 02/M03 A3019 RMK AO2
KNUQ 011455Z AUTO 00000KT 10SM CLR 02/M03 A3020 RMK AO2
KNUQ 011555Z AUTO 00000KT 10SM CLR 03/M03 A3021 RMK AO2
KNUQ 011655Z AUTO 00000KT 10SM CLR 06/M02 A3022 RMK AO2
KNUQ 011755Z AUTO 00000KT 10SM CLR 08/M02 A3022 RMK AO2
KNUQ 011855Z AUTO 35005KT 10SM CLR 10/M00 A3022 RMK AO2
KNUQ 011955Z AUTO 34004KT 10SM CLR 11/M03 A3021 RMK AO2
KNUQ 012055Z AUTO 35007KT 10SM CLR 12/M03 A3019 RMK AO2
KNUQ 012155Z AUTO 35007KT 10SM CLR 13/M02 A3018 RMK AO2



Page loaded:  22:43 UTC  |   02:43 PM Pacific  |   03:43 PM Mountain  |   04:43 PM Central  |   05:43 PM Eastern

 

ADVISORIES

FORECASTS

FORECASTS

OBSERVATIONS

USER TOOLS

ABOUT US